Map

Track Data

SID SEASON NUMBER BASIN SUBBASIN NAME ISO_TIME NATURE LAT LON WMO_WIND WMO_PRES WMO_AGENCY TRACK_TYPE DIST2LAND LANDFALL IFLAG USA_AGENCY USA_ATCF_ID USA_LAT USA_LON USA_RECORD USA_STATUS USA_WIND USA_PRES USA_SSHS USA_R34_NE USA_R34_SE USA_R34_SW USA_R34_NW USA_R50_NE USA_R50_SE USA_R50_SW USA_R50_NW USA_R64_NE USA_R64_SE USA_R64_SW USA_R64_NW USA_POCI USA_ROCI USA_RMW USA_EYE TOKYO_LAT TOKYO_LON TOKYO_GRADE TOKYO_WIND TOKYO_PRES TOKYO_R50_DIR TOKYO_R50_LONG TOKYO_R50_SHORT TOKYO_R30_DIR TOKYO_R30_LONG TOKYO_R30_SHORT TOKYO_LAND CMA_LAT CMA_LON CMA_CAT CMA_WIND CMA_PRES HKO_LAT HKO_LON HKO_CAT HKO_WIND HKO_PRES NEWDELHI_LAT NEWDELHI_LON NEWDELHI_GRADE NEWDELHI_WIND NEWDELHI_PRES NEWDELHI_CI NEWDELHI_DP NEWDELHI_POCI REUNION_LAT REUNION_LON REUNION_TYPE REUNION_WIND REUNION_PRES REUNION_TNUM REUNION_CI REUNION_RMW REUNION_R34_NE REUNION_R34_SE REUNION_R34_SW REUNION_R34_NW REUNION_R50_NE REUNION_R50_SE REUNION_R50_SW REUNION_R50_NW REUNION_R64_NE REUNION_R64_SE REUNION_R64_SW REUNION_R64_NW BOM_LAT BOM_LON BOM_TYPE BOM_WIND BOM_PRES BOM_TNUM BOM_CI BOM_RMW BOM_R34_NE BOM_R34_SE BOM_R34_SW BOM_R34_NW BOM_R50_NE BOM_R50_SE BOM_R50_SW BOM_R50_NW BOM_R64_NE BOM_R64_SE BOM_R64_SW BOM_R64_NW BOM_ROCI BOM_POCI BOM_EYE BOM_POS_METHOD BOM_PRES_METHOD NADI_LAT NADI_LON NADI_CAT NADI_WIND NADI_PRES WELLINGTON_LAT WELLINGTON_LON WELLINGTON_WIND WELLINGTON_PRES DS824_LAT DS824_LON DS824_STAGE DS824_WIND DS824_PRES TD9636_LAT TD9636_LON TD9636_STAGE TD9636_WIND TD9636_PRES TD9635_LAT TD9635_LON TD9635_WIND TD9635_PRES TD9635_ROCI NEUMANN_LAT NEUMANN_LON NEUMANN_CLASS NEUMANN_WIND NEUMANN_PRES MLC_LAT MLC_LON MLC_CLASS MLC_WIND MLC_PRES USA_GUST BOM_GUST BOM_GUST_PER REUNION_GUST REUNION_GUST_PER USA_SEAHGT USA_SEARAD_NE USA_SEARAD_SE USA_SEARAD_SW USA_SEARAD_NW STORM_SPEED STORM_DIR
1994117N07096 1994 31 NI BB NOT_NAMED 1994-04-26 18:00:00 NR 7.40000 95.5000 main 201 201 O_____________ jtwc_io IO021994 7.40000 95.5000 15 -1 5 292
1994117N07096 1994 31 NI BB NOT_NAMED 1994-04-26 21:00:00 NR 7.50003 95.2500 main 212 212 P_____________ IO021994 7.50003 95.2500 15 -1 5 292
1994117N07096 1994 31 NI BB NOT_NAMED 1994-04-27 00:00:00 NR 7.60000 95.0000 main 225 225 O_____________ jtwc_io IO021994 7.60000 95.0000 15 -1 5 292
1994117N07096 1994 31 NI BB NOT_NAMED 1994-04-27 03:00:00 NR 7.69999 94.7500 main 239 241 P_____________ IO021994 7.69999 94.7500 15 -1 5 292
1994117N07096 1994 31 NI BB NOT_NAMED 1994-04-27 06:00:00 NR 7.80000 94.5000 main 258 258 O_____________ jtwc_io IO021994 7.80000 94.5000 15 -1 5 292
1994117N07096 1994 31 NI BB NOT_NAMED 1994-04-27 09:00:00 NR 7.89999 94.2500 main 276 280 P_____________ IO021994 7.89999 94.2500 17 -1 5 292
1994117N07096 1994 31 NI BB NOT_NAMED 1994-04-27 12:00:00 NR 8.00000 94.0000 main 299 299 O_____________ jtwc_io IO021994 8.00000 94.0000 20 -1 5 292
1994117N07096 1994 31 NI BB NOT_NAMED 1994-04-27 15:00:00 NR 8.09999 93.7500 main 319 325 P_____________ IO021994 8.09999 93.7500 20 -1 5 292
1994117N07096 1994 31 NI BB NOT_NAMED 1994-04-27 18:00:00 NR 8.20000 93.5000 main 346 346 O_____________ jtwc_io IO021994 8.20000 93.5000 20 -1 5 292
1994117N07096 1994 31 NI BB NOT_NAMED 1994-04-27 21:00:00 NR 8.29998 93.2500 main 368 374 P_____________ IO021994 8.29998 93.2500 20 -1 5 292
1994117N07096 1994 31 NI BB NOT_NAMED 1994-04-28 00:00:00 NR 8.40000 93.0000 main 396 396 O_____________ jtwc_io IO021994 8.40000 93.0000 20 -1 5 292
1994117N07096 1994 31 NI BB NOT_NAMED 1994-04-28 03:00:00 NR 8.49998 92.7500 main 419 426 P_____________ IO021994 8.49998 92.7500 22 -1 5 292
1994117N07096 1994 31 NI BB NOT_NAMED 1994-04-28 06:00:00 NR 8.60000 92.5000 main 449 449 O_____________ jtwc_io IO021994 8.60000 92.5000 25 -1 5 291
1994117N07096 1994 31 NI BB NOT_NAMED 1994-04-28 09:00:00 NR 8.69248 92.2500 main 479 479 P_____________ IO021994 8.69248 92.2500 25 -1 5 292
1994117N07096 1994 31 NI BB NOT_NAMED 1994-04-28 12:00:00 NR 8.80000 92.0000 main 503 503 O_____________ jtwc_io IO021994 8.80000 92.0000 25 -1 6 296
1994117N07096 1994 31 NI BB NOT_NAMED 1994-04-28 15:00:00 NR 8.94250 91.7425 main 534 534 P_____________ IO021994 8.94250 91.7425 27 -1 6 301
1994117N07096 1994 31 NI BB NOT_NAMED 1994-04-28 18:00:00 NR 9.10000 91.5000 main 566 566 O_____________ jtwc_io IO021994 9.10000 91.5000 30 -1 5 305
1994117N07096 1994 31 NI BB NOT_NAMED 1994-04-28 21:00:00 NR 9.24998 91.2925 main 589 589 P_____________ IO021994 9.24998 91.2925 30 -1 2 299
1994117N07096 1994 31 NI BB NOT_NAMED 1994-04-29 00:00:00 NR 9.22000 91.2800 25 1002 newdelhi main 589 589 O___O_________ jtwc_io IO021994 9.40000 91.1000 30 -1 8.50000 92.0000 25 1002 1.50000 4 1006 2 298
1994117N07096 1994 31 NI BB NOT_NAMED 1994-04-29 03:00:00 NR 9.35668 91.0850 30 1001 newdelhi main 621 621 P___O_________ IO021994 9.53502 90.8775 32 -1 9.00000 91.5000 30 1001 2.00000 5 1006 4 314
1994117N07096 1994 31 NI BB NOT_NAMED 1994-04-29 06:00:00 NR 9.52857 90.9572 30 1001 newdelhi main 636 636 O___O_________ jtwc_io IO021994 9.70000 90.7000 35 0 9.30000 91.3000 30 1001 2.00000 5 1006 5 336
1994117N07096 1994 31 NI BB NOT_NAMED 1994-04-29 09:00:00 NR 9.79760 90.8836 main 668 668 P___P_________ IO021994 9.93498 90.6275 35 0 9.66021 91.1398 32 999 6 1006 6 345
1994117N07096 1994 31 NI BB NOT_NAMED 1994-04-29 12:00:00 NR 10.1000 90.8000 35 998 newdelhi main 699 699 O___O_________ jtwc_io IO021994 10.2000 90.6000 35 0 10.0000 91.0000 35 998 2.50000 8 1006 6 340
1994117N07096 1994 31 NI BB NOT_NAMED 1994-04-29 15:00:00 NR 10.3325 90.6925 main 723 722 P___P_________ IO021994 10.4425 90.5500 37 0 10.2225 90.8350 40 996 9 1005 5 336
1994117N07096 1994 31 NI BB NOT_NAMED 1994-04-29 18:00:00 NR 10.5500 90.6000 45 994 newdelhi main 712 694 O___O_________ jtwc_io IO021994 10.7000 90.5000 40 0 10.4000 90.7000 45 994 3.00000 10 1004 5 343
1994117N07096 1994 31 NI BB NOT_NAMED 1994-04-29 21:00:00 NR 10.7962 90.5483 main 701 683 P___P_________ IO021994 10.9925 90.4500 42 0 10.6000 90.6465 45 994 10 1004 5 349
1994117N07096 1994 31 NI BB NOT_NAMED 1994-04-30 00:00:00 NR 11.0500 90.5000 45 994 newdelhi main 674 664 O___O_________ jtwc_io IO021994 11.3000 90.4000 45 0 10.8000 90.6000 45 994 3.00000 10 1004 5 346
1994117N07096 1994 31 NI BB NOT_NAMED 1994-04-30 03:00:00 NR 11.2962 90.4250 45 994 newdelhi main 664 630 P___O_________ IO021994 11.5925 90.3500 47 0 11.0000 90.5000 45 994 3.00000 10 1004 7 347
1994117N07096 1994 31 NI BB NOT_NAMED 1994-04-30 06:00:00 NR 11.7000 90.3500 45 994 newdelhi main 630 613 O___O_________ jtwc_io IO021994 11.9000 90.3000 50 0 11.5000 90.4000 45 994 3.00000 10 1004 7 354
1994117N07096 1994 31 NI BB NOT_NAMED 1994-04-30 09:00:00 NR 12.0010 90.3445 main 613 582 P___P_________ IO021994 12.2350 90.2425 52 0 11.7670 90.4464 50 991 13 1004 6 1
1994117N07096 1994 31 NI BB NOT_NAMED 1994-04-30 12:00:00 NR 12.3000 90.3500 55 988 newdelhi main 582 559 O___O_________ jtwc_io IO021994 12.6000 90.2000 55 0 12.0000 90.5000 55 988 3.50000 16 1004 7 354
1994117N07096 1994 31 NI BB NOT_NAMED 1994-04-30 15:00:00 NR 12.7388 90.2751 main 559 532 P___P_________ IO021994 12.9775 90.1850 60 0 12.5000 90.3652 55 988 16 1004 9 351
1994117N07096 1994 31 NI BB NOT_NAMED 1994-04-30 18:00:00 NR 13.2000 90.2000 55 988 newdelhi main 532 513 O___O_________ jtwc_io IO021994 13.4000 90.2000 65 1 13.0000 90.2000 55 988 3.50000 16 1004 8 354
1994117N07096 1994 31 NI BB NOT_NAMED 1994-04-30 21:00:00 NR 13.5590 90.1907 main 507 489 P___P_________ IO021994 13.8850 90.2350 70 1 13.2329 90.1464 57 987 17 1004 8 0
1994117N07096 1994 31 NI BB NOT_NAMED 1994-05-01 00:00:00 NR 13.9500 90.2000 60 986 newdelhi main 484 465 O___O_________ jtwc_io IO021994 14.4000 90.3000 75 1 13.5000 90.1000 60 986 3.50000 18 1004 9 1
1994117N07096 1994 31 NI BB NOT_NAMED 1994-05-01 03:00:00 NR 14.4463 90.1963 60 986 newdelhi main 465 427 P___O_________ IO021994 14.8925 90.3925 80 1 14.0000 90.0000 60 986 3.50000 18 1004 13 4
1994117N07096 1994 31 NI BB NOT_NAMED 1994-05-01 06:00:00 NR 15.2000 90.3000 60 986 newdelhi main 427 408 O___O_________ jtwc_io IO021994 15.4000 90.5000 85 2 15.0000 90.1000 60 986 3.50000 18 1004 14 9
1994117N07096 1994 31 NI BB NOT_NAMED 1994-05-01 09:00:00 NR 15.7724 90.4230 main 407 395 P___P_________ IO021994 15.9425 90.5926 90 2 15.6023 90.2534 68 979 25 1004 11 13
1994117N07096 1994 31 NI BB NOT_NAMED 1994-05-01 12:00:00 NR 16.2500 90.5500 77 972 newdelhi main 386 385 O___O_________ jtwc_io IO021994 16.5000 90.7000 95 2 16.0000 90.4000 77 972 4.50000 32 1004 10 12
1994117N07096 1994 31 NI BB NOT_NAMED 1994-05-01 15:00:00 NR 16.7562 90.6316 main 394 369 P___P_________ IO021994 17.0500 90.8425 100 3 16.4624 90.4207 83 967 37 1004 11 10
1994117N07096 1994 31 NI BB NOT_NAMED 1994-05-01 18:00:00 NR 17.3000 90.7500 90 962 newdelhi main 360 310 O___O_________ jtwc_io IO021994 17.6000 91.0000 105 3 17.0000 90.5000 90 962 5.00000 42 1004 13 16
1994117N07096 1994 31 NI BB NOT_NAMED 1994-05-01 21:00:00 NR 17.9624 90.9908 main 305 244 P___P_________ IO021994 18.1575 91.1426 110 3 17.7673 90.8390 96 957 47 1004 14 20
1994117N07096 1994 31 NI BB NOT_NAMED 1994-05-02 00:00:00 NR 18.6000 91.2500 102 952 newdelhi main 237 191 O___O_________ jtwc_io IO021994 18.7000 91.3000 115 4 18.5000 91.2000 102 952 5.50000 52 1004 12 21
1994117N07096 1994 31 NI BB NOT_NAMED 1994-05-02 03:00:00 NR 19.1037 91.4463 102 952 newdelhi main 191 139 P___O_________ IO021994 19.2075 91.4926 120 4 19.0000 91.4000 102 952 5.50000 54 1006 11 18
1994117N07096 1994 31 NI BB NOT_NAMED 1994-05-02 06:00:00 NR 19.6000 91.6000 102 948 newdelhi main 139 91 O___O_________ jtwc_io IO021994 19.7000 91.7000 125 4 19.5000 91.5000 102 948 5.50000 58 1006 11 18
1994117N07096 1994 31 NI BB NOT_NAMED 1994-05-02 09:00:00 NR 20.1207 91.8026 main 91 43 P___P_________ IO021994 20.1999 91.8927 117 4 20.0415 91.7125 108 944 62 1006 11 22
1994117N07096 1994 31 NI BB NOT_NAMED 1994-05-02 12:00:00 NR 20.6571 92.0571 115 940 newdelhi main 30 0 O___O_________ jtwc_io IO021994 20.7000 92.1000 110 3 20.6000 92.0000 115 940 6.00000 66 1006 12 24
1994117N07096 1994 31 NI BB NOT_NAMED 1994-05-02 15:00:00 NR 21.1961 92.3084 main 0 0 P___P_________ IO021994 21.2223 92.3127 95 2 21.1438 92.2997 12 25
1994117N07096 1994 31 NI BB NOT_NAMED 1994-05-02 17:00:00 NR 21.5403 92.4931 newdelhi main 0 0 P___O_________ IO021994 21.5503 92.4913 84 2 21.5000 92.5000 0.00000 12 28
1994117N07096 1994 31 NI BB NOT_NAMED 1994-05-02 18:00:00 NR 21.7000 92.6000 main 0 0 O_____________ jtwc_io IO021994 21.7000 92.6000 80 1 11 42
1994117N07096 1994 31 NI BB NOT_NAMED 1994-05-02 21:00:00 NR 22.0800 93.0126 main 0 0 P_____________ IO021994 22.0800 93.0126 65 1 11 50
1994117N07096 1994 31 NI BB NOT_NAMED 1994-05-03 00:00:00 NR 22.4000 93.5000 main 0 0 O_____________ jtwc_io IO021994 22.4000 93.5000 50 0 11 55
1994117N07096 1994 31 NI BB NOT_NAMED 1994-05-03 03:00:00 NR 22.7148 93.9852 main 0 0 P_____________ IO021994 22.7148 93.9852 40 0 11 57
1994117N07096 1994 31 NI BB NOT_NAMED 1994-05-03 06:00:00 NR 23.0000 94.5000 main 0 0 O_____________ jtwc_io IO021994 23.0000 94.5000 30 -1 11 61
1994117N07096 1994 31 NI BB NOT_NAMED 1994-05-03 09:00:00 NR 23.2579 95.0421 main 0 0 P_____________ IO021994 23.2579 95.0421 25 -1 11 64
1994117N07096 1994 31 NI BB NOT_NAMED 1994-05-03 12:00:00 NR 23.5000 95.6000 main 0 O_____________ jtwc_io IO021994 23.5000 95.6000 20 -1 11 65

About IBTrACS Database

This database is a web-friendly format of International Best Track Archive for Climate Stewardship (IBTrACS), a global best track data archive curated by NOAA dating back to 1842.

Updated: 2021-10-21